Search for airport 
image banner adimage banner adimage banner ad
image banner ad

PS40 - Tri-County

Located in Eckley, United States

ICAO - PS40, IATA -

Data provided by Airmate  

General information

Coordinates: N40°59'10" W75°50'4"
Elevation is 1700 feet MSL.
Magnetic variation is -08° East
View others Airports in Pennsylvania

Operational data

Special qualification required
Current time UTC:
Current local time:
Weather at : KHZL - Hazleton Rgnl ( 13 km )
METAR: KHZL 061235Z AUTO 32011G17KT 10SM SCT032 08/00 A3002 RMK AO2
View NOTAMs / SUP AIP / TFR affecting this airport [VIEW]
Communications frequencies: [VIEW]

Runways:

Airport contact information

Address: Eckley United States

Satellite view of PS40